sensor_id;sensor_type;location;lat;lon;timestamp;P1;durP1;ratioP1;P2;durP2;ratioP2
2896;SDS011;1458;49.728;9.228;2023-06-24T00:02:24;0.20;;;0.20;;
2896;SDS011;1458;49.728;9.228;2023-06-24T00:04:51;0.10;;;0.10;;
2896;SDS011;1458;49.728;9.228;2023-06-24T00:07:19;0.10;;;0.10;;
2896;SDS011;1458;49.728;9.228;2023-06-24T00:09:47;0.10;;;0.10;;
2896;SDS011;1458;49.728;9.228;2023-06-24T00:12:15;0.13;;;0.13;;
2896;SDS011;1458;49.728;9.228;2023-06-24T00:14:46;0.10;;;0.10;;
2896;SDS011;1458;49.728;9.228;2023-06-24T00:17:14;0.20;;;0.20;;
2896;SDS011;1458;49.728;9.228;2023-06-24T00:19:42;0.20;;;0.20;;
2896;SDS011;1458;49.728;9.228;2023-06-24T00:22:10;0.20;;;0.20;;
2896;SDS011;1458;49.728;9.228;2023-06-24T00:24:37;0.10;;;0.10;;
2896;SDS011;1458;49.728;9.228;2023-06-24T00:27:05;0.10;;;0.10;;
2896;SDS011;1458;49.728;9.228;2023-06-24T00:29:36;0.20;;;0.20;;
2896;SDS011;1458;49.728;9.228;2023-06-24T00:32:05;0.20;;;0.20;;
2896;SDS011;1458;49.728;9.228;2023-06-24T00:34:34;0.10;;;0.10;;
2896;SDS011;1458;49.728;9.228;2023-06-24T00:37:01;0.10;;;0.10;;
2896;SDS011;1458;49.728;9.228;2023-06-24T00:39:29;0.20;;;0.20;;
2896;SDS011;1458;49.728;9.228;2023-06-24T00:41:58;0.10;;;0.10;;
2896;SDS011;1458;49.728;9.228;2023-06-24T00:44:26;0.10;;;0.10;;
2896;SDS011;1458;49.728;9.228;2023-06-24T00:46:54;0.17;;;0.17;;
2896;SDS011;1458;49.728;9.228;2023-06-24T00:49:23;0.10;;;0.10;;
2896;SDS011;1458;49.728;9.228;2023-06-24T00:51:50;0.20;;;0.20;;
2896;SDS011;1458;49.728;9.228;2023-06-24T00:54:18;0.20;;;0.20;;
2896;SDS011;1458;49.728;9.228;2023-06-24T00:56:45;0.20;;;0.20;;
2896;SDS011;1458;49.728;9.228;2023-06-24T00:59:15;0.10;;;0.10;;
2896;SDS011;1458;49.728;9.228;2023-06-24T01:01:43;0.10;;;0.10;;
2896;SDS011;1458;49.728;9.228;2023-06-24T01:04:11;0.10;;;0.10;;
2896;SDS011;1458;49.728;9.228;2023-06-24T01:06:40;0.10;;;0.10;;
2896;SDS011;1458;49.728;9.228;2023-06-24T01:09:08;0.20;;;0.20;;
2896;SDS011;1458;49.728;9.228;2023-06-24T01:11:36;0.10;;;0.10;;
2896;SDS011;1458;49.728;9.228;2023-06-24T01:14:05;0.10;;;0.10;;
2896;SDS011;1458;49.728;9.228;2023-06-24T01:16:33;0.20;;;0.20;;
2896;SDS011;1458;49.728;9.228;2023-06-24T01:19:19;0.20;;;0.20;;
2896;SDS011;1458;49.728;9.228;2023-06-24T01:22:08;0.20;;;0.20;;
2896;SDS011;1458;49.728;9.228;2023-06-24T01:25:01;0.20;;;0.20;;
2896;SDS011;1458;49.728;9.228;2023-06-24T01:27:52;0.20;;;0.20;;
2896;SDS011;1458;49.728;9.228;2023-06-24T01:30:45;0.10;;;0.10;;
2896;SDS011;1458;49.728;9.228;2023-06-24T01:33:47;0.10;;;0.10;;
2896;SDS011;1458;49.728;9.228;2023-06-24T01:36:20;0.10;;;0.10;;
2896;SDS011;1458;49.728;9.228;2023-06-24T01:38:52;0.20;;;0.20;;
2896;SDS011;1458;49.728;9.228;2023-06-24T01:41:34;0.20;;;0.20;;
2896;SDS011;1458;49.728;9.228;2023-06-24T01:44:07;0.20;;;0.20;;
2896;SDS011;1458;49.728;9.228;2023-06-24T01:46:38;0.20;;;0.20;;
2896;SDS011;1458;49.728;9.228;2023-06-24T01:49:09;0.20;;;0.20;;
2896;SDS011;1458;49.728;9.228;2023-06-24T01:51:41;0.20;;;0.20;;
2896;SDS011;1458;49.728;9.228;2023-06-24T01:54:14;0.10;;;0.10;;
2896;SDS011;1458;49.728;9.228;2023-06-24T01:56:45;0.20;;;0.20;;
2896;SDS011;1458;49.728;9.228;2023-06-24T01:59:15;0.20;;;0.20;;
2896;SDS011;1458;49.728;9.228;2023-06-24T02:01:46;0.20;;;0.20;;
2896;SDS011;1458;49.728;9.228;2023-06-24T02:04:16;0.20;;;0.20;;
2896;SDS011;1458;49.728;9.228;2023-06-24T02:06:45;0.20;;;0.20;;
2896;SDS011;1458;49.728;9.228;2023-06-24T02:09:14;0.20;;;0.20;;
2896;SDS011;1458;49.728;9.228;2023-06-24T02:11:45;0.10;;;0.10;;
2896;SDS011;1458;49.728;9.228;2023-06-24T02:14:13;0.20;;;0.20;;
2896;SDS011;1458;49.728;9.228;2023-06-24T02:16:42;0.20;;;0.20;;
2896;SDS011;1458;49.728;9.228;2023-06-24T02:19:14;0.20;;;0.20;;
2896;SDS011;1458;49.728;9.228;2023-06-24T02:21:44;0.20;;;0.20;;
2896;SDS011;1458;49.728;9.228;2023-06-24T02:24:13;0.20;;;0.20;;
2896;SDS011;1458;49.728;9.228;2023-06-24T02:26:41;0.10;;;0.10;;
2896;SDS011;1458;49.728;9.228;2023-06-24T02:29:10;0.10;;;0.10;;
2896;SDS011;1458;49.728;9.228;2023-06-24T02:31:39;0.20;;;0.20;;
2896;SDS011;1458;49.728;9.228;2023-06-24T02:34:08;0.17;;;0.17;;
2896;SDS011;1458;49.728;9.228;2023-06-24T02:36:36;0.20;;;0.20;;
2896;SDS011;1458;49.728;9.228;2023-06-24T02:39:04;0.10;;;0.10;;
2896;SDS011;1458;49.728;9.228;2023-06-24T02:41:31;0.20;;;0.20;;
2896;SDS011;1458;49.728;9.228;2023-06-24T02:43:58;0.20;;;0.20;;
2896;SDS011;1458;49.728;9.228;2023-06-24T02:46:26;0.20;;;0.20;;
2896;SDS011;1458;49.728;9.228;2023-06-24T02:48:56;0.20;;;0.20;;
2896;SDS011;1458;49.728;9.228;2023-06-24T02:51:25;0.20;;;0.20;;
2896;SDS011;1458;49.728;9.228;2023-06-24T02:53:53;0.30;;;0.30;;
2896;SDS011;1458;49.728;9.228;2023-06-24T02:56:37;0.20;;;0.20;;
2896;SDS011;1458;49.728;9.228;2023-06-24T02:59:07;0.20;;;0.20;;
2896;SDS011;1458;49.728;9.228;2023-06-24T03:01:36;0.20;;;0.20;;
2896;SDS011;1458;49.728;9.228;2023-06-24T03:04:05;0.20;;;0.20;;
2896;SDS011;1458;49.728;9.228;2023-06-24T03:06:34;0.20;;;0.20;;
2896;SDS011;1458;49.728;9.228;2023-06-24T03:09:05;0.20;;;0.20;;
2896;SDS011;1458;49.728;9.228;2023-06-24T03:11:40;0.20;;;0.20;;
2896;SDS011;1458;49.728;9.228;2023-06-24T03:14:08;0.20;;;0.20;;
2896;SDS011;1458;49.728;9.228;2023-06-24T03:16:41;0.20;;;0.20;;
2896;SDS011;1458;49.728;9.228;2023-06-24T03:19:12;0.20;;;0.20;;
2896;SDS011;1458;49.728;9.228;2023-06-24T03:21:42;0.20;;;0.20;;
2896;SDS011;1458;49.728;9.228;2023-06-24T03:24:12;0.20;;;0.20;;
2896;SDS011;1458;49.728;9.228;2023-06-24T03:26:41;0.20;;;0.20;;
2896;SDS011;1458;49.728;9.228;2023-06-24T03:29:11;0.20;;;0.20;;
2896;SDS011;1458;49.728;9.228;2023-06-24T03:31:51;0.20;;;0.20;;
2896;SDS011;1458;49.728;9.228;2023-06-24T03:34:21;0.30;;;0.30;;
2896;SDS011;1458;49.728;9.228;2023-06-24T03:36:53;0.20;;;0.20;;
2896;SDS011;1458;49.728;9.228;2023-06-24T03:39:20;0.20;;;0.20;;
2896;SDS011;1458;49.728;9.228;2023-06-24T03:41:48;0.20;;;0.20;;
2896;SDS011;1458;49.728;9.228;2023-06-24T03:44:16;0.20;;;0.20;;
2896;SDS011;1458;49.728;9.228;2023-06-24T03:46:44;0.20;;;0.20;;
2896;SDS011;1458;49.728;9.228;2023-06-24T03:49:12;0.20;;;0.20;;
2896;SDS011;1458;49.728;9.228;2023-06-24T03:51:39;0.20;;;0.20;;
2896;SDS011;1458;49.728;9.228;2023-06-24T03:54:09;0.20;;;0.20;;
2896;SDS011;1458;49.728;9.228;2023-06-24T03:56:36;0.20;;;0.20;;
2896;SDS011;1458;49.728;9.228;2023-06-24T03:59:04;0.20;;;0.20;;
2896;SDS011;1458;49.728;9.228;2023-06-24T04:01:33;0.20;;;0.20;;
2896;SDS011;1458;49.728;9.228;2023-06-24T04:04:01;0.20;;;0.20;;
2896;SDS011;1458;49.728;9.228;2023-06-24T04:06:29;0.20;;;0.20;;
2896;SDS011;1458;49.728;9.228;2023-06-24T04:08:56;0.20;;;0.20;;
2896;SDS011;1458;49.728;9.228;2023-06-24T04:11:25;0.20;;;0.20;;
2896;SDS011;1458;49.728;9.228;2023-06-24T04:13:52;0.20;;;0.20;;
2896;SDS011;1458;49.728;9.228;2023-06-24T04:16:20;0.20;;;0.20;;
2896;SDS011;1458;49.728;9.228;2023-06-24T04:18:47;0.20;;;0.20;;
2896;SDS011;1458;49.728;9.228;2023-06-24T04:21:15;0.20;;;0.20;;
2896;SDS011;1458;49.728;9.228;2023-06-24T04:23:42;0.20;;;0.20;;
2896;SDS011;1458;49.728;9.228;2023-06-24T04:26:10;0.20;;;0.20;;
2896;SDS011;1458;49.728;9.228;2023-06-24T04:28:46;0.10;;;0.10;;
2896;SDS011;1458;49.728;9.228;2023-06-24T04:31:14;0.20;;;0.20;;
2896;SDS011;1458;49.728;9.228;2023-06-24T04:33:41;0.40;;;0.40;;
2896;SDS011;1458;49.728;9.228;2023-06-24T04:36:12;1.10;;;1.10;;
2896;SDS011;1458;49.728;9.228;2023-06-24T04:38:41;2.80;;;2.80;;
2896;SDS011;1458;49.728;9.228;2023-06-24T04:41:11;4.90;;;4.90;;
2896;SDS011;1458;49.728;9.228;2023-06-24T04:43:52;5.50;;;5.50;;
2896;SDS011;1458;49.728;9.228;2023-06-24T04:46:22;6.97;;;6.87;;
2896;SDS011;1458;49.728;9.228;2023-06-24T04:48:54;8.23;;;8.13;;
2896;SDS011;1458;49.728;9.228;2023-06-24T04:51:22;8.60;;;8.50;;
2896;SDS011;1458;49.728;9.228;2023-06-24T04:53:51;9.40;;;9.20;;
2896;SDS011;1458;49.728;9.228;2023-06-24T04:56:30;9.20;;;9.00;;
2896;SDS011;1458;49.728;9.228;2023-06-24T04:58:59;9.60;;;9.40;;
2896;SDS011;1458;49.728;9.228;2023-06-24T05:01:26;9.60;;;9.40;;
2896;SDS011;1458;49.728;9.228;2023-06-24T05:03:54;9.53;;;9.33;;
2896;SDS011;1458;49.728;9.228;2023-06-24T05:06:22;9.30;;;9.10;;
2896;SDS011;1458;49.728;9.228;2023-06-24T05:08:49;9.20;;;9.00;;
2896;SDS011;1458;49.728;9.228;2023-06-24T05:11:16;8.70;;;8.60;;
2896;SDS011;1458;49.728;9.228;2023-06-24T05:13:44;8.20;;;8.10;;
2896;SDS011;1458;49.728;9.228;2023-06-24T05:16:13;8.37;;;8.27;;
2896;SDS011;1458;49.728;9.228;2023-06-24T05:18:42;8.00;;;7.90;;
2896;SDS011;1458;49.728;9.228;2023-06-24T05:21:10;7.60;;;7.50;;
2896;SDS011;1458;49.728;9.228;2023-06-24T05:23:38;7.00;;;6.90;;
2896;SDS011;1458;49.728;9.228;2023-06-24T05:26:05;6.00;;;6.00;;
2896;SDS011;1458;49.728;9.228;2023-06-24T05:28:33;5.40;;;5.40;;
2896;SDS011;1458;49.728;9.228;2023-06-24T05:31:00;6.00;;;6.00;;
2896;SDS011;1458;49.728;9.228;2023-06-24T05:33:29;5.73;;;5.73;;
2896;SDS011;1458;49.728;9.228;2023-06-24T05:35:56;5.70;;;5.70;;
2896;SDS011;1458;49.728;9.228;2023-06-24T05:38:24;5.10;;;5.10;;
2896;SDS011;1458;49.728;9.228;2023-06-24T05:40:51;5.50;;;5.50;;
2896;SDS011;1458;49.728;9.228;2023-06-24T05:43:18;5.00;;;5.00;;
2896;SDS011;1458;49.728;9.228;2023-06-24T05:45:46;5.30;;;5.30;;
2896;SDS011;1458;49.728;9.228;2023-06-24T05:48:13;5.20;;;5.20;;
2896;SDS011;1458;49.728;9.228;2023-06-24T05:50:42;4.60;;;4.60;;
2896;SDS011;1458;49.728;9.228;2023-06-24T05:53:10;4.53;;;4.53;;
2896;SDS011;1458;49.728;9.228;2023-06-24T05:55:37;4.60;;;4.60;;
2896;SDS011;1458;49.728;9.228;2023-06-24T05:58:04;4.80;;;4.80;;
2896;SDS011;1458;49.728;9.228;2023-06-24T06:00:32;4.70;;;4.70;;
2896;SDS011;1458;49.728;9.228;2023-06-24T06:02:59;4.50;;;4.50;;
2896;SDS011;1458;49.728;9.228;2023-06-24T06:05:27;3.80;;;3.80;;
2896;SDS011;1458;49.728;9.228;2023-06-24T06:07:55;3.80;;;3.80;;
2896;SDS011;1458;49.728;9.228;2023-06-24T06:10:23;4.33;;;4.33;;
2896;SDS011;1458;49.728;9.228;2023-06-24T06:12:50;4.20;;;4.20;;
2896;SDS011;1458;49.728;9.228;2023-06-24T06:15:18;3.70;;;3.70;;
2896;SDS011;1458;49.728;9.228;2023-06-24T06:17:46;3.20;;;3.20;;
2896;SDS011;1458;49.728;9.228;2023-06-24T06:20:13;3.60;;;3.60;;
2896;SDS011;1458;49.728;9.228;2023-06-24T06:22:41;3.30;;;3.30;;
2896;SDS011;1458;49.728;9.228;2023-06-24T06:25:10;3.80;;;3.80;;
2896;SDS011;1458;49.728;9.228;2023-06-24T06:27:37;3.77;;;3.77;;
2896;SDS011;1458;49.728;9.228;2023-06-24T06:30:05;3.90;;;3.90;;
2896;SDS011;1458;49.728;9.228;2023-06-24T06:32:34;3.57;;;3.57;;
2896;SDS011;1458;49.728;9.228;2023-06-24T06:35:01;3.97;;;3.97;;
2896;SDS011;1458;49.728;9.228;2023-06-24T06:37:30;3.80;;;3.80;;
2896;SDS011;1458;49.728;9.228;2023-06-24T06:39:57;3.80;;;3.80;;
2896;SDS011;1458;49.728;9.228;2023-06-24T06:42:26;4.07;;;4.07;;
2896;SDS011;1458;49.728;9.228;2023-06-24T06:44:53;3.57;;;3.57;;
2896;SDS011;1458;49.728;9.228;2023-06-24T06:47:21;3.83;;;3.83;;
2896;SDS011;1458;49.728;9.228;2023-06-24T06:49:49;3.90;;;3.90;;
2896;SDS011;1458;49.728;9.228;2023-06-24T06:52:16;3.90;;;3.90;;
2896;SDS011;1458;49.728;9.228;2023-06-24T06:54:44;4.17;;;4.17;;
2896;SDS011;1458;49.728;9.228;2023-06-24T06:57:11;4.53;;;4.53;;
2896;SDS011;1458;49.728;9.228;2023-06-24T06:59:40;4.40;;;4.40;;
2896;SDS011;1458;49.728;9.228;2023-06-24T07:02:07;3.60;;;3.60;;
2896;SDS011;1458;49.728;9.228;2023-06-24T07:04:35;4.10;;;4.10;;
2896;SDS011;1458;49.728;9.228;2023-06-24T07:07:02;4.10;;;4.10;;
2896;SDS011;1458;49.728;9.228;2023-06-24T07:09:31;5.03;;;5.03;;
2896;SDS011;1458;49.728;9.228;2023-06-24T07:11:58;5.70;;;5.70;;
2896;SDS011;1458;49.728;9.228;2023-06-24T07:14:26;6.40;;;6.40;;
2896;SDS011;1458;49.728;9.228;2023-06-24T07:16:55;7.60;;;7.50;;
2896;SDS011;1458;49.728;9.228;2023-06-24T07:19:22;9.13;;;8.93;;
2896;SDS011;1458;49.728;9.228;2023-06-24T07:21:49;9.60;;;9.40;;
2896;SDS011;1458;49.728;9.228;2023-06-24T07:24:17;10.07;;;9.87;;
2896;SDS011;1458;49.728;9.228;2023-06-24T07:26:45;10.40;;;10.20;;
2896;SDS011;1458;49.728;9.228;2023-06-24T07:29:14;10.60;;;10.30;;
2896;SDS011;1458;49.728;9.228;2023-06-24T07:31:41;10.20;;;10.00;;
2896;SDS011;1458;49.728;9.228;2023-06-24T07:34:10;10.07;;;9.87;;
2896;SDS011;1458;49.728;9.228;2023-06-24T07:36:38;10.70;;;10.40;;
2896;SDS011;1458;49.728;9.228;2023-06-24T07:39:05;11.27;;;10.97;;
2896;SDS011;1458;49.728;9.228;2023-06-24T07:41:33;9.90;;;9.70;;
2896;SDS011;1458;49.728;9.228;2023-06-24T07:44:00;9.97;;;9.77;;
2896;SDS011;1458;49.728;9.228;2023-06-24T07:46:28;9.53;;;9.33;;
2896;SDS011;1458;49.728;9.228;2023-06-24T07:48:55;9.60;;;9.40;;
2896;SDS011;1458;49.728;9.228;2023-06-24T07:51:24;9.40;;;9.20;;
2896;SDS011;1458;49.728;9.228;2023-06-24T07:53:52;9.50;;;9.30;;
2896;SDS011;1458;49.728;9.228;2023-06-24T07:56:19;10.13;;;9.93;;
2896;SDS011;1458;49.728;9.228;2023-06-24T07:58:47;10.10;;;9.90;;
2896;SDS011;1458;49.728;9.228;2023-06-24T08:01:14;10.63;;;10.33;;
2896;SDS011;1458;49.728;9.228;2023-06-24T08:03:42;10.80;;;10.50;;
2896;SDS011;1458;49.728;9.228;2023-06-24T08:06:09;11.00;;;10.70;;
2896;SDS011;1458;49.728;9.228;2023-06-24T08:08:38;11.90;;;11.60;;
2896;SDS011;1458;49.728;9.228;2023-06-24T08:11:06;11.77;;;11.47;;
2896;SDS011;1458;49.728;9.228;2023-06-24T08:13:33;11.53;;;11.23;;
2896;SDS011;1458;49.728;9.228;2023-06-24T08:16:00;11.60;;;11.30;;
2896;SDS011;1458;49.728;9.228;2023-06-24T08:18:28;11.40;;;11.10;;
2896;SDS011;1458;49.728;9.228;2023-06-24T08:20:55;11.50;;;11.20;;
2896;SDS011;1458;49.728;9.228;2023-06-24T08:23:23;11.57;;;11.27;;
2896;SDS011;1458;49.728;9.228;2023-06-24T08:25:52;11.63;;;11.33;;
2896;SDS011;1458;49.728;9.228;2023-06-24T08:28:19;11.70;;;11.40;;
2896;SDS011;1458;49.728;9.228;2023-06-24T08:30:47;11.43;;;11.13;;
2896;SDS011;1458;49.728;9.228;2023-06-24T08:33:14;11.80;;;11.50;;
2896;SDS011;1458;49.728;9.228;2023-06-24T08:35:42;11.50;;;11.20;;
2896;SDS011;1458;49.728;9.228;2023-06-24T08:38:09;11.87;;;11.57;;
2896;SDS011;1458;49.728;9.228;2023-06-24T08:40:37;11.70;;;11.40;;
2896;SDS011;1458;49.728;9.228;2023-06-24T08:43:07;11.83;;;11.53;;
2896;SDS011;1458;49.728;9.228;2023-06-24T08:45:34;11.80;;;11.50;;
2896;SDS011;1458;49.728;9.228;2023-06-24T08:48:03;12.70;;;12.30;;
2896;SDS011;1458;49.728;9.228;2023-06-24T08:50:33;11.70;;;11.40;;
2896;SDS011;1458;49.728;9.228;2023-06-24T08:53:06;12.10;;;11.80;;
2896;SDS011;1458;49.728;9.228;2023-06-24T08:55:36;11.87;;;11.57;;
2896;SDS011;1458;49.728;9.228;2023-06-24T08:58:08;12.10;;;11.80;;
2896;SDS011;1458;49.728;9.228;2023-06-24T09:00:35;11.83;;;11.53;;
2896;SDS011;1458;49.728;9.228;2023-06-24T09:03:03;12.53;;;12.13;;
2896;SDS011;1458;49.728;9.228;2023-06-24T09:05:30;11.80;;;11.50;;
2896;SDS011;1458;49.728;9.228;2023-06-24T09:07:58;11.73;;;11.43;;
2896;SDS011;1458;49.728;9.228;2023-06-24T09:10:29;11.70;;;11.40;;
2896;SDS011;1458;49.728;9.228;2023-06-24T09:12:58;11.60;;;11.30;;
2896;SDS011;1458;49.728;9.228;2023-06-24T09:15:31;11.50;;;11.20;;
2896;SDS011;1458;49.728;9.228;2023-06-24T09:17:58;11.70;;;11.40;;
2896;SDS011;1458;49.728;9.228;2023-06-24T09:20:26;11.70;;;11.40;;
2896;SDS011;1458;49.728;9.228;2023-06-24T09:22:58;12.13;;;11.83;;
2896;SDS011;1458;49.728;9.228;2023-06-24T09:25:30;12.00;;;11.70;;
2896;SDS011;1458;49.728;9.228;2023-06-24T09:27:58;11.80;;;11.50;;
2896;SDS011;1458;49.728;9.228;2023-06-24T09:30:26;12.00;;;11.70;;
2896;SDS011;1458;49.728;9.228;2023-06-24T09:32:55;11.53;;;11.23;;
2896;SDS011;1458;49.728;9.228;2023-06-24T09:35:23;11.77;;;11.47;;
2896;SDS011;1458;49.728;9.228;2023-06-24T09:37:52;12.13;;;11.83;;
2896;SDS011;1458;49.728;9.228;2023-06-24T09:40:21;11.60;;;11.30;;
2896;SDS011;1458;49.728;9.228;2023-06-24T09:42:50;12.10;;;11.80;;
2896;SDS011;1458;49.728;9.228;2023-06-24T09:45:19;12.10;;;11.80;;
2896;SDS011;1458;49.728;9.228;2023-06-24T09:47:49;11.80;;;11.50;;
2896;SDS011;1458;49.728;9.228;2023-06-24T09:50:18;12.20;;;11.90;;
2896;SDS011;1458;49.728;9.228;2023-06-24T09:52:46;12.23;;;11.90;;
2896;SDS011;1458;49.728;9.228;2023-06-24T09:55:16;12.27;;;11.90;;
2896;SDS011;1458;49.728;9.228;2023-06-24T09:57:45;11.80;;;11.50;;
2896;SDS011;1458;49.728;9.228;2023-06-24T10:00:16;11.80;;;11.50;;
2896;SDS011;1458;49.728;9.228;2023-06-24T10:02:46;11.70;;;11.40;;
2896;SDS011;1458;49.728;9.228;2023-06-24T10:05:15;11.80;;;11.50;;
2896;SDS011;1458;49.728;9.228;2023-06-24T10:07:44;11.93;;;11.63;;
2896;SDS011;1458;49.728;9.228;2023-06-24T10:10:13;11.60;;;11.30;;
2896;SDS011;1458;49.728;9.228;2023-06-24T10:12:41;12.43;;;12.13;;
2896;SDS011;1458;49.728;9.228;2023-06-24T10:15:08;11.57;;;11.27;;
2896;SDS011;1458;49.728;9.228;2023-06-24T10:17:36;11.70;;;11.40;;
2896;SDS011;1458;49.728;9.228;2023-06-24T10:20:04;11.70;;;11.40;;
2896;SDS011;1458;49.728;9.228;2023-06-24T10:22:33;11.80;;;11.50;;
2896;SDS011;1458;49.728;9.228;2023-06-24T10:25:05;11.90;;;11.60;;
2896;SDS011;1458;49.728;9.228;2023-06-24T10:27:38;11.80;;;11.50;;
2896;SDS011;1458;49.728;9.228;2023-06-24T10:30:08;11.73;;;11.43;;
2896;SDS011;1458;49.728;9.228;2023-06-24T10:32:44;11.87;;;11.57;;
2896;SDS011;1458;49.728;9.228;2023-06-24T10:35:22;11.83;;;11.53;;
2896;SDS011;1458;49.728;9.228;2023-06-24T10:37:54;11.50;;;11.20;;
2896;SDS011;1458;49.728;9.228;2023-06-24T10:46:06;11.40;;;11.10;;
2896;SDS011;1458;49.728;9.228;2023-06-24T10:48:42;11.73;;;11.43;;
2896;SDS011;1458;49.728;9.228;2023-06-24T10:51:09;12.10;;;11.80;;
2896;SDS011;1458;49.728;9.228;2023-06-24T10:53:37;11.80;;;11.50;;
2896;SDS011;1458;49.728;9.228;2023-06-24T10:56:06;11.47;;;11.17;;
2896;SDS011;1458;49.728;9.228;2023-06-24T10:58:34;11.50;;;11.20;;
2896;SDS011;1458;49.728;9.228;2023-06-24T11:01:08;11.47;;;11.17;;
2896;SDS011;1458;49.728;9.228;2023-06-24T11:03:35;11.70;;;11.40;;
2896;SDS011;1458;49.728;9.228;2023-06-24T11:06:06;11.87;;;11.57;;
2896;SDS011;1458;49.728;9.228;2023-06-24T11:08:42;11.70;;;11.40;;
2896;SDS011;1458;49.728;9.228;2023-06-24T11:11:19;11.57;;;11.27;;
2896;SDS011;1458;49.728;9.228;2023-06-24T11:13:47;11.73;;;11.43;;
2896;SDS011;1458;49.728;9.228;2023-06-24T11:16:19;11.80;;;11.50;;
2896;SDS011;1458;49.728;9.228;2023-06-24T11:18:48;11.80;;;11.50;;
2896;SDS011;1458;49.728;9.228;2023-06-24T11:21:15;11.87;;;11.57;;
2896;SDS011;1458;49.728;9.228;2023-06-24T11:23:43;11.57;;;11.27;;
2896;SDS011;1458;49.728;9.228;2023-06-24T11:26:10;11.80;;;11.50;;
2896;SDS011;1458;49.728;9.228;2023-06-24T11:28:39;11.80;;;11.50;;
2896;SDS011;1458;49.728;9.228;2023-06-24T11:31:07;11.43;;;11.13;;
2896;SDS011;1458;49.728;9.228;2023-06-24T11:33:35;12.13;;;11.83;;
2896;SDS011;1458;49.728;9.228;2023-06-24T11:36:08;11.77;;;11.47;;
2896;SDS011;1458;49.728;9.228;2023-06-24T11:38:36;11.20;;;10.90;;
2896;SDS011;1458;49.728;9.228;2023-06-24T11:41:04;11.90;;;11.60;;
2896;SDS011;1458;49.728;9.228;2023-06-24T11:43:31;11.30;;;11.00;;
2896;SDS011;1458;49.728;9.228;2023-06-24T11:46:01;11.50;;;11.20;;
2896;SDS011;1458;49.728;9.228;2023-06-24T11:48:28;11.20;;;10.90;;
2896;SDS011;1458;49.728;9.228;2023-06-24T11:50:57;11.50;;;11.20;;
2896;SDS011;1458;49.728;9.228;2023-06-24T11:53:29;11.33;;;11.03;;
2896;SDS011;1458;49.728;9.228;2023-06-24T11:55:57;11.00;;;10.70;;
2896;SDS011;1458;49.728;9.228;2023-06-24T11:58:24;11.60;;;11.30;;
2896;SDS011;1458;49.728;9.228;2023-06-24T12:00:52;11.60;;;11.30;;
2896;SDS011;1458;49.728;9.228;2023-06-24T12:03:22;11.97;;;11.67;;
2896;SDS011;1458;49.728;9.228;2023-06-24T12:05:50;11.60;;;11.30;;
2896;SDS011;1458;49.728;9.228;2023-06-24T12:08:18;11.70;;;11.40;;
2896;SDS011;1458;49.728;9.228;2023-06-24T12:10:48;11.67;;;11.37;;
2896;SDS011;1458;49.728;9.228;2023-06-24T12:13:16;12.10;;;11.80;;
2896;SDS011;1458;49.728;9.228;2023-06-24T12:15:43;12.40;;;12.00;;
2896;SDS011;1458;49.728;9.228;2023-06-24T12:18:12;12.37;;;11.97;;
2896;SDS011;1458;49.728;9.228;2023-06-24T12:20:41;12.40;;;12.00;;
2896;SDS011;1458;49.728;9.228;2023-06-24T12:23:09;12.60;;;12.20;;
2896;SDS011;1458;49.728;9.228;2023-06-24T12:25:37;12.70;;;12.30;;
2896;SDS011;1458;49.728;9.228;2023-06-24T12:28:05;12.53;;;12.13;;
2896;SDS011;1458;49.728;9.228;2023-06-24T12:30:33;12.30;;;11.90;;
2896;SDS011;1458;49.728;9.228;2023-06-24T12:33:00;11.70;;;11.40;;
2896;SDS011;1458;49.728;9.228;2023-06-24T12:35:29;11.80;;;11.50;;
2896;SDS011;1458;49.728;9.228;2023-06-24T12:37:58;11.70;;;11.40;;
2896;SDS011;1458;49.728;9.228;2023-06-24T12:40:25;11.93;;;11.63;;
2896;SDS011;1458;49.728;9.228;2023-06-24T12:42:53;11.77;;;11.47;;
2896;SDS011;1458;49.728;9.228;2023-06-24T12:45:23;11.80;;;11.50;;
2896;SDS011;1458;49.728;9.228;2023-06-24T12:47:51;12.00;;;11.70;;
2896;SDS011;1458;49.728;9.228;2023-06-24T12:50:19;11.60;;;11.30;;
2896;SDS011;1458;49.728;9.228;2023-06-24T12:52:46;11.57;;;11.27;;
2896;SDS011;1458;49.728;9.228;2023-06-24T12:55:15;11.60;;;11.30;;
2896;SDS011;1458;49.728;9.228;2023-06-24T12:57:43;11.93;;;11.63;;
2896;SDS011;1458;49.728;9.228;2023-06-24T13:00:11;11.93;;;11.63;;
2896;SDS011;1458;49.728;9.228;2023-06-24T13:02:39;12.00;;;11.70;;
2896;SDS011;1458;49.728;9.228;2023-06-24T13:05:07;12.17;;;11.87;;
2896;SDS011;1458;49.728;9.228;2023-06-24T13:07:35;12.00;;;11.70;;
2896;SDS011;1458;49.728;9.228;2023-06-24T13:10:02;12.00;;;11.70;;
2896;SDS011;1458;49.728;9.228;2023-06-24T13:12:32;11.83;;;11.53;;
2896;SDS011;1458;49.728;9.228;2023-06-24T13:15:00;11.83;;;11.53;;
2896;SDS011;1458;49.728;9.228;2023-06-24T13:17:29;11.87;;;11.57;;
2896;SDS011;1458;49.728;9.228;2023-06-24T13:19:57;11.80;;;11.50;;
2896;SDS011;1458;49.728;9.228;2023-06-24T13:22:25;11.43;;;11.13;;
2896;SDS011;1458;49.728;9.228;2023-06-24T13:24:52;11.37;;;11.07;;
2896;SDS011;1458;49.728;9.228;2023-06-24T13:27:20;11.70;;;11.40;;
2896;SDS011;1458;49.728;9.228;2023-06-24T13:29:48;12.13;;;11.83;;
2896;SDS011;1458;49.728;9.228;2023-06-24T13:32:16;11.43;;;11.13;;
2896;SDS011;1458;49.728;9.228;2023-06-24T13:34:45;11.20;;;10.90;;
2896;SDS011;1458;49.728;9.228;2023-06-24T13:37:12;11.70;;;11.40;;
2896;SDS011;1458;49.728;9.228;2023-06-24T13:39:40;11.30;;;11.00;;
2896;SDS011;1458;49.728;9.228;2023-06-24T13:42:07;12.30;;;12.00;;
2896;SDS011;1458;49.728;9.228;2023-06-24T13:44:36;11.70;;;11.40;;
2896;SDS011;1458;49.728;9.228;2023-06-24T13:47:05;11.93;;;11.63;;
2896;SDS011;1458;49.728;9.228;2023-06-24T13:49:33;11.70;;;11.40;;
2896;SDS011;1458;49.728;9.228;2023-06-24T13:52:01;11.80;;;11.50;;
2896;SDS011;1458;49.728;9.228;2023-06-24T13:54:28;12.10;;;11.80;;
2896;SDS011;1458;49.728;9.228;2023-06-24T13:56:58;11.70;;;11.40;;
2896;SDS011;1458;49.728;9.228;2023-06-24T13:59:25;11.30;;;11.00;;
2896;SDS011;1458;49.728;9.228;2023-06-24T14:01:53;11.40;;;11.10;;
2896;SDS011;1458;49.728;9.228;2023-06-24T14:04:22;11.30;;;11.00;;
2896;SDS011;1458;49.728;9.228;2023-06-24T14:06:49;11.10;;;10.80;;
2896;SDS011;1458;49.728;9.228;2023-06-24T14:09:18;11.53;;;11.23;;
2896;SDS011;1458;49.728;9.228;2023-06-24T14:11:46;11.80;;;11.50;;
2896;SDS011;1458;49.728;9.228;2023-06-24T14:14:14;12.40;;;12.00;;
2896;SDS011;1458;49.728;9.228;2023-06-24T14:16:41;11.70;;;11.40;;
2896;SDS011;1458;49.728;9.228;2023-06-24T14:19:09;11.70;;;11.40;;
2896;SDS011;1458;49.728;9.228;2023-06-24T14:21:39;11.63;;;11.33;;
2896;SDS011;1458;49.728;9.228;2023-06-24T14:24:07;11.77;;;11.47;;
2896;SDS011;1458;49.728;9.228;2023-06-24T14:26:36;11.70;;;11.40;;
2896;SDS011;1458;49.728;9.228;2023-06-24T14:29:04;12.40;;;12.00;;
2896;SDS011;1458;49.728;9.228;2023-06-24T14:31:31;12.00;;;11.70;;
2896;SDS011;1458;49.728;9.228;2023-06-24T14:33:59;12.43;;;12.03;;
2896;SDS011;1458;49.728;9.228;2023-06-24T14:36:27;12.07;;;11.77;;
2896;SDS011;1458;49.728;9.228;2023-06-24T14:38:56;12.40;;;12.00;;
2896;SDS011;1458;49.728;9.228;2023-06-24T14:41:23;12.60;;;12.20;;
2896;SDS011;1458;49.728;9.228;2023-06-24T14:43:51;12.50;;;12.10;;
2896;SDS011;1458;49.728;9.228;2023-06-24T14:46:19;13.00;;;12.60;;
2896;SDS011;1458;49.728;9.228;2023-06-24T14:48:46;12.80;;;12.40;;
2896;SDS011;1458;49.728;9.228;2023-06-24T14:51:14;12.50;;;12.10;;
2896;SDS011;1458;49.728;9.228;2023-06-24T14:53:41;12.00;;;11.70;;
2896;SDS011;1458;49.728;9.228;2023-06-24T14:56:10;12.43;;;12.03;;
2896;SDS011;1458;49.728;9.228;2023-06-24T14:58:38;12.00;;;11.70;;
2896;SDS011;1458;49.728;9.228;2023-06-24T15:01:07;12.40;;;12.00;;
2896;SDS011;1458;49.728;9.228;2023-06-24T15:03:36;12.00;;;11.70;;
2896;SDS011;1458;49.728;9.228;2023-06-24T15:06:04;12.63;;;12.23;;
2896;SDS011;1458;49.728;9.228;2023-06-24T15:08:32;12.10;;;11.80;;
2896;SDS011;1458;49.728;9.228;2023-06-24T15:11:00;11.87;;;11.57;;
2896;SDS011;1458;49.728;9.228;2023-06-24T15:13:30;12.10;;;11.80;;
2896;SDS011;1458;49.728;9.228;2023-06-24T15:15:58;11.90;;;11.60;;
2896;SDS011;1458;49.728;9.228;2023-06-24T15:18:26;11.80;;;11.50;;